Time;durP1;ratioP1;P1;durP2;ratioP2;P2;SDS_P1;SDS_P2;PMS_P1;PMS_P2;Temp;Humidity;BMP_temperature;BMP_pressure;BME280_temperature;BME280_humidity;BME280_pressure;Samples;Min_cycle;Max_cycle;Signal;HPM_P1;HPM_P2
2021/07/15 00:00:14;;;;;;;24.52;6.58;;;;;;;21.07;69.97;98507.41;2045316;87;21019;-64
2021/07/15 00:03:16;;;;;;;30.30;6.70;;;;;;;21.11;70.18;98560.73;2027837;87;21035;-64
2021/07/15 00:06:17;;;;;;;27.17;6.85;;;;;;;21.12;70.68;98685.57;2045234;87;21087;-64
2021/07/15 00:09:17;;;;;;;28.32;6.95;;;;;;;20.94;75.65;98869.63;2045164;87;21003;-64
2021/07/15 00:12:18;;;;;;;26.52;7.87;;;;;;;20.38;76.74;98926.36;2045007;87;21494;-64
2021/07/15 00:49:42;;;;;;;25.75;7.65;;;;;;;20.02;79.45;98646.88;2291133;78;22471;-63
2021/07/15 00:52:43;;;;;;;25.10;8.10;;;;;;;19.85;80.80;98640.11;2236980;79;21068;-63
2021/07/15 00:55:44;;;;;;;20.97;6.83;;;;;;;19.79;80.46;98630.61;2236716;79;20965;-63
2021/07/15 00:58:44;;;;;;;24.15;7.60;;;;;;;19.73;80.49;98598.78;2236762;79;20999;-63
2021/07/15 01:01:45;;;;;;;25.23;7.78;;;;;;;19.63;80.22;98588.75;2236656;80;21577;-63
2021/07/15 01:04:45;;;;;;;29.57;7.67;;;;;;;19.64;80.34;98590.41;2236638;79;21514;-63
2021/07/15 01:07:45;;;;;;;24.80;7.53;;;;;;;19.60;80.13;98572.61;2237137;79;20932;-63
2021/07/15 01:10:46;;;;;;;23.60;8.00;;;;;;;19.63;79.78;98557.66;2236903;79;20937;-63
2021/07/15 01:13:46;;;;;;;26.65;7.55;;;;;;;19.67;79.48;98532.41;2236776;79;20960;-63
2021/07/15 01:16:47;;;;;;;26.25;8.05;;;;;;;19.70;79.40;98529.42;2236467;80;21492;-63
2021/07/15 01:19:47;;;;;;;24.98;8.95;;;;;;;19.73;80.03;98518.46;2236664;79;21563;-62
2021/07/15 01:22:48;;;;;;;23.95;7.10;;;;;;;19.68;80.07;98503.97;2236619;80;21028;-63
2021/07/15 01:25:48;;;;;;;22.85;7.15;;;;;;;19.68;81.09;98509.29;2236780;79;20992;-63
2021/07/15 01:28:48;;;;;;;19.48;6.62;;;;;;;19.71;80.04;98561.70;2236592;79;20964;-63
2021/07/15 01:31:49;;;;;;;28.17;6.92;;;;;;;19.73;79.80;98571.67;2236746;79;20999;-63
2021/07/15 01:56:43;;;;;;;26.27;6.12;;;;;;;20.83;77.17;98698.84;2164879;82;22944;-63
2021/07/15 01:59:45;;;;;;;18.33;5.60;;;;;;;20.73;77.05;98704.30;2151856;83;21524;-63
2021/07/15 02:02:45;;;;;;;18.73;5.70;;;;;;;20.62;77.18;98696.57;2135362;83;21048;-63
2021/07/15 02:20:59;;;;;;;21.70;5.90;;;;;;;20.66;77.19;98655.29;2287194;77;22665;-63
2021/07/15 02:24:00;;;;;;;23.43;6.43;;;;;;;20.54;77.29;98644.11;2251103;79;20950;-63
2021/07/15 02:27:00;;;;;;;21.65;6.08;;;;;;;20.48;77.60;98609.28;2250574;79;20937;-63
2021/07/15 02:30:01;;;;;;;23.77;7.10;;;;;;;20.21;77.93;98614.70;2250236;79;21021;-63
2021/07/15 02:44:50;;;;;;;24.20;6.87;;;;;;;20.54;77.42;98630.78;2238428;79;22670;-63
2021/07/15 02:47:52;;;;;;;25.20;7.37;;;;;;;20.19;78.16;98635.81;2189384;80;21044;-63
2021/07/15 02:50:52;;;;;;;25.68;7.22;;;;;;;19.99;78.79;98640.03;2189452;81;20977;-63
2021/07/15 02:53:53;;;;;;;23.47;6.67;;;;;;;19.94;78.79;98660.13;2189450;81;20981;-63
2021/07/15 02:56:54;;;;;;;23.40;6.15;;;;;;;19.92;79.71;98629.68;2189304;81;21081;-63
2021/07/15 02:59:56;;;;;;;22.32;5.90;;;;;;;19.84;79.30;98591.89;2189461;81;20987;-63
2021/07/15 03:02:56;;;;;;;21.12;6.22;;;;;;;19.74;79.21;98605.78;2189218;81;20992;-63
2021/07/15 03:05:57;;;;;;;25.55;6.83;;;;;;;19.70;79.31;98595.12;2189251;81;21021;-63
2021/07/15 03:08:58;;;;;;;22.73;6.60;;;;;;;19.64;79.59;98583.75;2189437;81;21069;-63
2021/07/15 03:15:00;;;;;;;21.25;6.33;;;;;;;19.67;79.67;98576.81;2131404;83;21008;-63
2021/07/15 03:18:01;;;;;;;23.18;6.97;;;;;;;19.71;79.60;98578.14;2147881;83;21038;-63
2021/07/15 03:21:01;;;;;;;21.30;6.80;;;;;;;19.77;79.65;98566.03;2147588;83;21062;-63
2021/07/15 03:24:02;;;;;;;20.37;6.30;;;;;;;19.71;79.77;98543.55;2147477;83;21481;-63
2021/07/15 03:27:04;;;;;;;24.15;6.55;;;;;;;19.73;79.87;98542.41;2147874;83;21490;-63
2021/07/15 03:30:04;;;;;;;22.73;7.12;;;;;;;19.70;79.82;98560.53;2147744;83;20979;-63
2021/07/15 03:33:05;;;;;;;22.20;7.03;;;;;;;19.65;80.58;98569.47;2147593;83;21047;-63
2021/07/15 03:36:05;;;;;;;21.87;6.87;;;;;;;19.60;81.20;98576.59;2147577;83;21521;-63
2021/07/15 03:39:06;;;;;;;20.50;6.47;;;;;;;19.59;80.31;98598.03;2147525;83;20944;-63
2021/07/15 03:42:07;;;;;;;20.90;6.37;;;;;;;19.62;80.64;98611.84;2147264;83;21529;-63
2021/07/15 03:45:08;;;;;;;22.95;6.67;;;;;;;19.63;80.58;98615.36;2138081;83;21041;-63
2021/07/15 03:48:08;;;;;;;21.15;6.25;;;;;;;19.63;80.62;98608.20;2138120;83;20940;-62
2021/07/15 03:51:10;;;;;;;21.75;6.53;;;;;;;19.70;80.40;98597.77;2137945;83;20937;-63
2021/07/15 03:54:10;;;;;;;21.20;6.20;;;;;;;19.75;80.47;98570.18;2137878;83;21589;-63
2021/07/15 03:57:10;;;;;;;21.50;6.20;;;;;;;19.78;80.53;98568.53;2137468;83;20952;-63
2021/07/15 04:00:11;;;;;;;21.60;6.78;;;;;;;19.83;80.28;98569.44;2137316;83;20992;-64
2021/07/15 04:03:11;;;;;;;21.40;6.67;;;;;;;19.81;80.32;98587.38;2137300;83;20961;-63
2021/07/15 04:06:12;;;;;;;24.77;6.83;;;;;;;19.83;80.52;98597.38;2137169;83;21005;-63
2021/07/15 04:09:12;;;;;;;23.18;6.50;;;;;;;19.85;80.68;98594.05;2137366;83;21415;-63
2021/07/15 04:12:13;;;;;;;23.67;7.10;;;;;;;19.86;80.75;98592.55;2137433;83;20932;-63
2021/07/15 04:15:14;;;;;;;26.23;6.95;;;;;;;19.90;80.53;98577.13;2137461;83;20968;-63
2021/07/15 04:18:14;;;;;;;22.40;6.73;;;;;;;19.96;80.48;98557.84;2137451;83;21002;-63
2021/07/15 04:21:15;;;;;;;23.00;6.92;;;;;;;20.00;80.71;98512.61;2137290;83;21071;-63
2021/07/15 04:24:15;;;;;;;24.07;7.25;;;;;;;19.92;80.83;98494.45;2137298;83;21521;-63
2021/07/15 04:27:16;;;;;;;23.80;7.25;;;;;;;19.84;81.09;98495.24;2137701;83;20960;-63
2021/07/15 04:30:16;;;;;;;22.10;6.80;;;;;;;19.87;81.36;98482.97;2137436;83;20985;-63
2021/07/15 04:33:17;;;;;;;23.87;7.35;;;;;;;19.89;81.34;98489.77;2137409;83;20976;-64
2021/07/15 04:36:17;;;;;;;20.15;6.47;;;;;;;19.94;81.37;98483.99;2137107;83;21027;-63
2021/07/15 04:39:18;;;;;;;19.62;6.03;;;;;;;19.88;82.22;98452.69;2137308;83;21029;-63
2021/07/15 04:42:18;;;;;;;20.82;6.35;;;;;;;19.80;82.20;98423.41;2137010;83;21032;-64
2021/07/15 04:45:19;;;;;;;23.65;7.75;;;;;;;19.70;83.04;98383.09;2127404;84;21009;-63
2021/07/15 04:48:20;;;;;;;18.35;6.10;;;;;;;19.65;83.01;98364.63;2127741;84;20996;-63
2021/07/15 04:51:20;;;;;;;21.02;6.33;;;;;;;19.72;82.85;98374.95;2127841;84;21068;-62
2021/07/15 04:54:20;;;;;;;21.40;6.55;;;;;;;19.81;82.58;98383.81;2127971;84;21000;-62
2021/07/15 04:57:21;;;;;;;20.92;6.83;;;;;;;19.94;82.12;98402.81;2127844;84;21056;-62
2021/07/15 05:00:21;;;;;;;22.65;7.15;;;;;;;20.05;82.05;98399.81;2127855;84;21432;-62
2021/07/15 05:03:22;;;;;;;20.57;6.45;;;;;;;20.22;81.83;98409.98;2127638;84;21076;-65
2021/07/15 05:06:22;;;;;;;21.15;6.12;;;;;;;20.36;81.68;98401.84;2127682;84;21023;-63
2021/07/15 05:09:23;;;;;;;24.18;6.25;;;;;;;20.49;81.07;98400.52;2127727;84;20968;-66
2021/07/15 05:12:23;;;;;;;26.85;7.33;;;;;;;20.55;80.84;98423.81;2127717;84;21028;-63
2021/07/15 05:15:24;;;;;;;22.77;7.05;;;;;;;20.63;80.79;98433.63;2127742;84;21366;-63
2021/07/15 05:18:24;;;;;;;23.52;6.87;;;;;;;20.73;80.73;98453.81;2127748;84;21458;-63
2021/07/15 05:21:24;;;;;;;22.13;7.03;;;;;;;20.78;80.54;98467.14;2127730;84;21067;-63
2021/07/15 05:24:25;;;;;;;21.75;6.85;;;;;;;20.81;80.50;98470.28;2127534;84;21008;-63
2021/07/15 05:27:26;;;;;;;22.45;7.03;;;;;;;20.82;80.59;98473.80;2127844;84;20941;-63
2021/07/15 05:30:26;;;;;;;22.52;6.95;;;;;;;20.92;80.69;98487.27;2127455;84;20977;-63
2021/07/15 05:33:27;;;;;;;22.27;6.40;;;;;;;20.99;80.36;98489.25;2127701;84;21432;-63
2021/07/15 05:36:27;;;;;;;22.13;6.30;;;;;;;21.09;80.38;98513.92;2127597;84;21487;-63
2021/07/15 05:39:27;;;;;;;25.72;7.17;;;;;;;21.12;80.08;98524.25;2127588;84;21024;-62
2021/07/15 05:42:28;;;;;;;24.10;7.78;;;;;;;21.17;80.09;98505.07;2127230;84;21044;-63
2021/07/15 05:45:29;;;;;;;25.60;7.85;;;;;;;21.21;80.05;98482.41;2136649;83;20984;-63
2021/07/15 05:48:29;;;;;;;26.80;7.78;;;;;;;21.19;79.43;98439.91;2137092;83;21061;-63
2021/07/15 05:51:30;;;;;;;22.90;8.00;;;;;;;21.19;79.43;98439.91;2137426;83;20948;-63
2021/07/15 05:54:31;;;;;;;22.87;7.08;;;;;;;21.28;79.82;98443.38;2137345;83;21035;-62
2021/07/15 05:57:33;;;;;;;23.90;7.60;;;;;;;21.26;80.07;98471.55;2137262;83;21032;-66
2021/07/15 06:00:33;;;;;;;;;;;;;;;21.44;80.40;98467.83;2139777;83;20936;-62
2021/07/15 06:03:33;;;;;;;25.60;7.25;;;;;;;21.55;80.21;98456.81;2117455;84;20392;-62
2021/07/15 06:06:34;;;;;;;22.77;7.85;;;;;;;21.66;79.94;98464.11;2117698;84;21073;-63
2021/07/15 06:09:34;;;;;;;23.35;7.67;;;;;;;21.74;79.75;98451.55;2117987;84;21025;-63
2021/07/15 06:12:35;;;;;;;27.15;8.00;;;;;;;21.82;79.57;98455.19;2117924;84;20991;-62
2021/07/15 06:15:35;;;;;;;24.50;8.18;;;;;;;21.89;79.62;98487.67;2117865;84;20985;-62
2021/07/15 06:18:36;;;;;;;24.95;8.05;;;;;;;21.94;79.49;98518.69;2117849;84;21046;-63
2021/07/15 06:21:36;;;;;;;26.02;8.60;;;;;;;21.93;79.15;98577.61;2117718;84;21482;-62
2021/07/15 06:24:37;;;;;;;25.77;7.37;;;;;;;21.81;79.22;98550.45;2117711;84;21116;-63
2021/07/15 06:27:37;;;;;;;24.65;7.95;;;;;;;21.78;79.47;98549.47;2117390;84;21005;-63
2021/07/15 06:30:37;;;;;;;26.37;8.70;;;;;;;21.74;79.26;98554.31;2127589;83;20959;-63
2021/07/15 06:33:38;;;;;;;28.47;8.13;;;;;;;21.73;79.34;98545.96;2127554;84;20987;-63
2021/07/15 06:36:39;;;;;;;28.50;7.67;;;;;;;21.78;79.39;98567.64;2127598;83;21028;-63
2021/07/15 06:39:39;;;;;;;29.40;8.70;;;;;;;21.80;79.36;98585.64;2127447;83;20970;-63
2021/07/15 06:42:40;;;;;;;26.95;8.13;;;;;;;21.73;79.22;98622.55;2127086;83;21069;-63
2021/07/15 06:45:41;;;;;;;23.12;7.60;;;;;;;21.62;79.37;98629.05;2118083;83;21064;-63
2021/07/15 06:48:41;;;;;;;24.35;7.75;;;;;;;21.44;79.70;98595.88;2118319;83;20998;-62
2021/07/15 06:51:41;;;;;;;26.30;7.72;;;;;;;21.34;79.62;98603.23;2117892;83;20985;-65
2021/07/15 06:54:42;;;;;;;25.82;7.95;;;;;;;21.28;80.01;98625.56;2117859;83;21080;-63
2021/07/15 06:57:42;;;;;;;25.43;8.10;;;;;;;21.25;80.27;98649.08;2117811;83;21531;-63
2021/07/15 07:13:42;;;;;;;23.47;7.05;;;;;;;21.82;78.54;98577.97;2261120;79;23379;-63
2021/07/15 07:16:43;;;;;;;23.70;7.00;;;;;;;21.84;79.12;98550.59;2228725;80;20945;-63
2021/07/15 07:19:43;;;;;;;24.57;6.93;;;;;;;21.82;78.93;98529.92;2228578;80;21019;-62
2021/07/15 07:22:43;;;;;;;23.35;7.65;;;;;;;21.82;79.20;98538.75;2228561;80;20972;-63
2021/07/15 07:25:44;;;;;;;19.35;6.30;;;;;;;21.93;79.46;98529.55;2228315;80;20969;-63
2021/07/15 07:28:44;;;;;;;25.10;6.93;;;;;;;22.04;78.96;98510.47;2228457;80;20977;-63
2021/07/15 07:31:46;;;;;;;21.60;6.78;;;;;;;22.19;79.14;98525.23;2227712;80;21550;-63
2021/07/15 07:34:46;;;;;;;21.42;6.62;;;;;;;22.36;78.98;98530.02;2228340;80;20996;-63
2021/07/15 07:37:47;;;;;;;21.57;6.97;;;;;;;22.56;78.70;98547.76;2228469;80;20999;-63
2021/07/15 07:40:47;;;;;;;22.57;7.53;;;;;;;22.82;78.46;98576.80;2228211;80;21016;-64
2021/07/15 07:43:47;;;;;;;19.70;7.40;;;;;;;22.99;78.09;98592.22;2228343;80;21008;-63
2021/07/15 07:46:48;;;;;;;23.87;6.93;;;;;;;23.12;77.78;98606.36;2228431;80;21006;-63
2021/07/15 07:49:48;;;;;;;20.80;6.70;;;;;;;23.28;77.83;98608.58;2228321;80;21011;-63
2021/07/15 07:52:49;;;;;;;20.10;6.60;;;;;;;23.38;77.52;98621.71;2228148;80;21509;-63
2021/07/15 07:55:49;;;;;;;23.17;6.87;;;;;;;23.41;77.11;98668.17;2228180;80;20999;-63
2021/07/15 07:58:49;;;;;;;26.97;13.97;;;;;;;23.37;76.64;98694.96;2228449;80;21003;-63
2021/07/15 08:01:50;;;;;;;18.63;6.47;;;;;;;23.15;76.65;98723.70;2228447;80;20972;-63
2021/07/15 08:04:50;;;;;;;22.33;5.80;;;;;;;22.92;76.51;98724.16;2228464;80;20991;-63
2021/07/15 08:07:51;;;;;;;18.73;5.47;;;;;;;22.66;76.87;98731.96;2228382;80;20975;-63
2021/07/15 08:10:51;;;;;;;20.60;6.07;;;;;;;22.52;76.42;98742.04;2228117;80;21053;-62
2021/07/15 08:13:52;;;;;;;24.00;7.33;;;;;;;22.52;77.18;98726.00;2221481;80;21526;-63
2021/07/15 08:16:52;;;;;;;16.67;5.30;;;;;;;22.73;76.62;98739.61;2221769;80;21019;-64
2021/07/15 08:19:52;;;;;;;21.67;5.33;;;;;;;23.03;76.92;98722.42;2221697;80;21026;-62
2021/07/15 08:22:53;;;;;;;21.27;5.50;;;;;;;23.47;76.32;98703.06;2221534;80;20973;-62
2021/07/15 08:25:53;;;;;;;20.03;6.20;;;;;;;24.08;75.55;98687.48;2221287;80;21029;-62
2021/07/15 08:28:54;;;;;;;21.93;6.90;;;;;;;24.86;74.76;98677.67;2220923;80;20976;-62
2021/07/15 08:31:54;;;;;;;25.83;7.13;;;;;;;25.71;72.97;98675.99;2220980;80;21019;-63
2021/07/15 08:34:54;;;;;;;20.17;6.60;;;;;;;26.11;71.65;98679.51;2220892;80;21482;-63
2021/07/15 08:37:55;;;;;;;24.20;6.47;;;;;;;26.07;69.96;98683.09;2220807;80;21027;-63
2021/07/15 08:40:56;;;;;;;21.93;6.28;;;;;;;25.80;69.50;98683.39;2220397;80;21519;-63
2021/07/15 08:43:56;;;;;;;19.67;6.50;;;;;;;25.48;69.64;98668.17;2220862;80;21008;-63
2021/07/15 08:46:57;;;;;;;21.17;6.13;;;;;;;25.20;69.33;98665.44;2221168;80;21043;-63
2021/07/15 08:49:58;;;;;;;18.80;6.15;;;;;;;25.01;70.45;98664.20;2220862;80;20995;-62
2021/07/15 08:52:59;;;;;;;24.27;6.67;;;;;;;24.87;70.41;98684.19;2220843;80;21524;-62
2021/07/15 08:59:01;;;;;;;20.65;6.10;;;;;;;24.75;70.64;98695.59;2203374;80;20981;-62
2021/07/15 09:02:02;;;;;;;20.68;6.55;;;;;;;24.60;70.63;98707.17;2220603;80;21499;-62
2021/07/15 09:05:03;;;;;;;21.33;6.87;;;;;;;24.39;70.24;98720.80;2220619;80;21011;-62
2021/07/15 09:08:03;;;;;;;24.13;7.73;;;;;;;24.10;69.57;98722.94;2220994;80;21000;-62
2021/07/15 09:11:04;;;;;;;28.53;7.80;;;;;;;23.79;70.33;98737.77;2220930;80;21004;-62
2021/07/15 09:14:07;;;;;;;25.73;7.17;;;;;;;23.59;70.65;98766.87;2210924;80;21519;-62
2021/07/15 09:17:07;;;;;;;21.15;5.67;;;;;;;23.29;70.69;98774.28;2210425;81;20961;-64
2021/07/15 09:20:08;;;;;;;17.90;5.80;;;;;;;22.85;70.82;98762.78;2210502;81;21008;-64
2021/07/15 09:23:08;;;;;;;22.47;6.03;;;;;;;22.46;71.74;98757.74;2210499;81;21036;-64
2021/07/15 09:26:09;;;;;;;21.20;6.50;;;;;;;22.22;72.72;98744.42;2210891;81;20981;-64
2021/07/15 09:29:09;;;;;;;27.97;6.57;;;;;;;22.11;73.00;98762.48;2210579;81;21072;-64
2021/07/15 09:32:09;;;;;;;23.32;6.30;;;;;;;22.01;73.40;98769.84;2210612;81;21048;-63
2021/07/15 09:35:10;;;;;;;23.83;6.60;;;;;;;21.90;73.74;98768.84;2210600;81;21523;-63
2021/07/15 09:38:10;;;;;;;24.23;6.58;;;;;;;21.78;73.98;98761.16;2210676;81;20985;-64
2021/07/15 09:41:11;;;;;;;19.65;6.20;;;;;;;21.69;74.35;98739.98;2210478;81;21025;-64
2021/07/15 09:44:11;;;;;;;26.47;7.00;;;;;;;21.69;74.47;98693.27;2210778;81;20984;-64
2021/07/15 09:47:12;;;;;;;26.07;7.17;;;;;;;21.84;74.76;98686.73;2210778;81;21037;-64
2021/07/15 09:50:12;;;;;;;22.73;6.87;;;;;;;22.11;75.14;98685.02;2210620;81;20981;-64
2021/07/15 09:53:13;;;;;;;22.80;6.70;;;;;;;22.52;75.27;98693.42;2210267;81;21531;-64
2021/07/15 09:56:16;;;;;;;23.70;6.03;;;;;;;22.90;74.83;98675.34;2210520;81;21467;-64
2021/07/15 09:59:16;;;;;;;20.82;5.80;;;;;;;23.37;74.71;98678.39;2203823;81;21012;-64
2021/07/15 10:02:16;;;;;;;19.73;5.57;;;;;;;23.91;73.44;98651.18;2210466;81;20957;-64
2021/07/15 10:05:17;;;;;;;24.23;6.10;;;;;;;24.30;71.51;98648.72;2210475;81;21004;-63
2021/07/15 10:08:18;;;;;;;19.43;5.97;;;;;;;24.91;71.20;98640.36;2210295;81;21546;-63
2021/07/15 10:11:18;;;;;;;21.13;5.83;;;;;;;24.91;71.20;98640.36;2210574;81;21445;-64
2021/07/15 10:14:20;;;;;;;18.83;5.27;;;;;;;25.22;70.45;98640.56;2220402;80;21036;-63
2021/07/15 10:17:20;;;;;;;20.82;5.25;;;;;;;25.50;69.73;98647.34;2220759;80;21052;-64
2021/07/15 10:20:21;;;;;;;20.43;5.73;;;;;;;25.73;69.34;98650.28;2220850;80;20971;-63
2021/07/15 10:23:21;;;;;;;19.83;5.73;;;;;;;25.92;69.12;98639.38;2220796;80;21102;-64
2021/07/15 10:26:22;;;;;;;19.67;6.33;;;;;;;26.12;68.21;98634.15;2220658;80;21669;-63
2021/07/15 10:29:22;;;;;;;19.07;5.20;;;;;;;26.34;68.57;98624.11;2220755;80;21094;-63
2021/07/15 10:32:23;;;;;;;16.23;4.87;;;;;;;26.69;67.52;98618.66;2220837;80;20996;-64
2021/07/15 10:35:26;;;;;;;19.20;4.72;;;;;;;26.93;66.14;98598.96;2220621;80;21057;-63
2021/07/15 10:38:27;;;;;;;18.67;4.60;;;;;;;26.96;65.56;98603.93;2220618;80;21094;-63
2021/07/15 10:41:27;;;;;;;14.50;4.50;;;;;;;27.00;65.62;98597.63;2220490;80;21549;-63
2021/07/15 10:44:28;;;;;;;18.13;5.20;;;;;;;26.84;64.65;98573.27;2220772;80;21530;-63
2021/07/15 10:47:29;;;;;;;16.33;5.00;;;;;;;26.69;64.77;98552.77;2220781;80;21017;-63
2021/07/15 10:50:29;;;;;;;18.42;5.08;;;;;;;26.34;65.94;98543.46;2220602;80;21048;-64
2021/07/15 10:53:30;;;;;;;16.47;5.20;;;;;;;26.34;67.16;98552.87;2220789;80;21000;-63
2021/07/15 10:56:30;;;;;;;19.20;5.50;;;;;;;26.48;66.82;98565.84;2220714;80;21028;-63
2021/07/15 10:59:31;;;;;;;13.17;4.80;;;;;;;26.58;67.16;98572.19;2220859;80;21455;-63
2021/07/15 11:02:31;;;;;;;16.73;4.90;;;;;;;26.70;67.29;98592.09;2220705;80;21554;-64
2021/07/15 11:05:32;;;;;;;19.45;5.30;;;;;;;26.75;66.92;98603.57;2220319;80;21000;-64
2021/07/15 11:08:33;;;;;;;15.00;4.97;;;;;;;26.79;66.71;98601.64;2220867;80;20937;-64
2021/07/15 11:11:33;;;;;;;17.87;5.00;;;;;;;26.90;66.63;98573.28;2220796;80;21478;-64
2021/07/15 11:14:34;;;;;;;17.00;4.83;;;;;;;27.03;66.13;98557.67;2210646;80;21510;-64
2021/07/15 11:17:35;;;;;;;18.00;5.50;;;;;;;27.05;65.68;98564.19;2210485;81;20987;-64
2021/07/15 11:20:36;;;;;;;16.40;4.97;;;;;;;27.06;65.11;98568.02;2210618;81;21032;-64
2021/07/15 11:23:36;;;;;;;16.93;5.42;;;;;;;27.04;64.68;98566.06;2210289;81;21024;-63
2021/07/15 11:26:38;;;;;;;17.63;5.70;;;;;;;26.95;64.44;98569.48;2210602;81;21550;-63
2021/07/15 11:29:39;;;;;;;15.98;5.60;;;;;;;26.89;64.58;98583.73;2210174;81;21045;-64
2021/07/15 11:32:39;;;;;;;17.00;5.60;;;;;;;26.95;64.76;98592.84;2210657;81;20973;-64
2021/07/15 11:35:39;;;;;;;19.87;6.20;;;;;;;26.93;64.39;98596.27;2210560;81;20961;-66
2021/07/15 11:38:40;;;;;;;18.80;5.90;;;;;;;26.88;63.78;98593.35;2210076;81;21482;-64
2021/07/15 11:41:41;;;;;;;19.00;6.00;;;;;;;26.97;64.05;98566.58;2210178;81;20980;-65
2021/07/15 11:59:38;;;;;;;19.50;5.97;;;;;;;29.00;58.69;98569.28;2255541;77;22788;-64
2021/07/15 12:02:40;;;;;;;21.23;6.07;;;;;;;28.93;58.60;98582.81;2221919;80;21039;-63
2021/07/15 12:05:40;;;;;;;22.02;6.83;;;;;;;28.93;59.77;98592.26;2221811;80;20999;-63
2021/07/15 12:08:41;;;;;;;23.97;7.60;;;;;;;29.30;59.78;98589.72;2221980;80;20984;-63
2021/07/15 12:11:41;;;;;;;20.73;6.87;;;;;;;29.63;58.67;98587.77;2222022;80;20960;-63
2021/07/15 12:14:42;;;;;;;22.37;7.13;;;;;;;29.84;57.93;98597.34;2221886;80;21426;-62
2021/07/15 12:17:42;;;;;;;20.07;7.13;;;;;;;29.98;57.46;98595.32;2221883;80;20984;-63
2021/07/15 12:20:42;;;;;;;23.33;6.97;;;;;;;30.08;56.56;98587.50;2221917;80;20968;-63
2021/07/15 12:23:44;;;;;;;25.17;7.33;;;;;;;30.21;56.93;98586.02;2222154;80;20979;-63
2021/07/15 12:26:45;;;;;;;21.57;7.12;;;;;;;30.46;55.34;98591.86;2221502;80;21018;-63
2021/07/15 12:43:08;;;;;;;23.98;7.83;;;;;;;31.82;53.44;98574.06;2261374;79;22448;-63
2021/07/15 12:46:09;;;;;;;22.60;7.53;;;;;;;31.77;52.99;98567.20;2228049;80;21063;-63
2021/07/15 12:49:10;;;;;;;23.30;7.60;;;;;;;31.64;53.18;98575.59;2228266;80;21464;-63
2021/07/15 12:52:10;;;;;;;21.87;7.77;;;;;;;31.50;53.07;98569.01;2228323;80;20944;-63
2021/07/15 12:55:11;;;;;;;21.37;7.27;;;;;;;31.38;53.16;98573.08;2228188;80;20941;-64
2021/07/15 12:58:11;;;;;;;22.00;7.77;;;;;;;31.27;52.61;98567.13;2228320;80;21028;-63
2021/07/15 13:01:12;;;;;;;22.23;8.10;;;;;;;31.23;51.85;98574.06;2228499;80;20992;-64
2021/07/15 13:04:12;;;;;;;21.63;8.33;;;;;;;31.21;52.61;98568.07;2228246;80;20968;-64
2021/07/15 13:07:14;;;;;;;23.07;8.40;;;;;;;31.17;52.54;98569.59;2228233;80;21481;-63
2021/07/15 13:16:19;;;;;;;25.57;7.62;;;;;;;31.71;51.20;98568.97;2212795;80;21024;-63
2021/07/15 13:19:19;;;;;;;21.23;7.90;;;;;;;31.83;50.79;98569.48;2228413;80;20979;-63
2021/07/15 13:22:20;;;;;;;24.43;9.33;;;;;;;32.00;51.03;98575.81;2228216;80;20991;-63
2021/07/15 13:25:20;;;;;;;20.00;7.47;;;;;;;32.20;51.09;98574.08;2228295;80;20971;-63
2021/07/15 13:28:20;;;;;;;20.87;7.93;;;;;;;32.25;50.81;98582.34;2228281;80;21015;-63
2021/07/15 13:31:21;;;;;;;21.97;8.23;;;;;;;32.27;50.95;98587.52;2228373;80;20975;-63
2021/07/15 13:34:21;;;;;;;23.20;7.67;;;;;;;32.24;51.27;98582.03;2228460;80;21731;-63
2021/07/15 13:37:22;;;;;;;21.52;8.10;;;;;;;32.24;50.94;98583.91;2228224;80;21545;-64
2021/07/15 13:40:23;;;;;;;23.62;8.58;;;;;;;32.20;51.08;98586.29;2227668;80;21050;-67
2021/07/15 13:43:24;;;;;;;;;;;;;;;32.18;50.87;98590.30;2230957;80;21062;-66
2021/07/15 13:46:25;;;;;;;20.43;8.20;;;;;;;32.12;50.68;98585.27;2228098;80;20088;-67
2021/07/15 13:49:25;;;;;;;22.13;8.10;;;;;;;32.03;51.00;98578.59;2228159;80;21470;-67
2021/07/15 13:52:26;;;;;;;22.02;8.13;;;;;;;31.98;50.89;98582.53;2227803;80;20997;-68
2021/07/15 13:55:26;;;;;;;22.77;7.77;;;;;;;31.87;50.74;98584.22;2227441;80;20946;-63
2021/07/15 13:58:27;;;;;;;24.40;7.95;;;;;;;31.83;50.77;98588.47;2227345;80;20976;-64
2021/07/15 14:01:27;;;;;;;24.27;8.03;;;;;;;31.76;51.25;98588.58;2227404;80;21127;-67
2021/07/15 14:04:28;;;;;;;20.52;7.50;;;;;;;31.74;50.97;98585.30;2227416;80;20976;-64
2021/07/15 14:07:29;;;;;;;20.48;7.95;;;;;;;31.69;51.06;98585.98;2227441;80;21003;-63
2021/07/15 14:10:29;;;;;;;22.55;8.20;;;;;;;31.66;50.83;98589.17;2227439;80;20968;-63
2021/07/15 14:13:30;;;;;;;23.57;8.10;;;;;;;31.55;50.93;98586.75;2227418;80;20995;-63
2021/07/15 14:16:31;;;;;;;21.95;8.23;;;;;;;31.49;51.14;98580.08;2227487;80;21051;-63
2021/07/15 14:19:31;;;;;;;23.50;8.40;;;;;;;31.38;51.38;98572.27;2227533;80;20960;-63
2021/07/15 14:22:32;;;;;;;24.40;8.43;;;;;;;31.33;51.69;98568.07;2227417;80;20956;-63
2021/07/15 14:25:32;;;;;;;20.80;8.23;;;;;;;31.36;51.78;98565.73;2227466;80;21419;-63
2021/07/15 14:28:33;;;;;;;26.37;8.17;;;;;;;31.29;51.70;98570.41;2227542;80;21533;-63
2021/07/15 14:31:33;;;;;;;22.17;9.20;;;;;;;31.32;51.74;98568.61;2227339;80;21027;-63
2021/07/15 14:34:34;;;;;;;22.63;8.90;;;;;;;31.40;51.10;98577.72;2227419;80;21019;-63
2021/07/15 14:37:34;;;;;;;27.00;8.93;;;;;;;31.37;50.44;98576.03;2226966;80;21079;-65
2021/07/15 14:40:35;;;;;;;24.27;8.73;;;;;;;31.27;51.44;98561.70;2227584;80;21031;-63
2021/07/15 14:43:35;;;;;;;25.77;8.53;;;;;;;31.40;51.35;98573.66;2220736;80;21053;-63
2021/07/15 14:46:36;;;;;;;23.30;8.50;;;;;;;31.37;50.94;98572.78;2221204;80;20976;-63
2021/07/15 14:49:37;;;;;;;22.00;8.78;;;;;;;31.30;50.97;98565.84;2220798;80;20976;-63
2021/07/15 14:52:37;;;;;;;22.13;8.90;;;;;;;31.23;50.54;98567.30;2220827;80;21502;-63
2021/07/15 14:55:38;;;;;;;23.93;8.80;;;;;;;31.12;50.77;98568.11;2220816;80;21076;-63
2021/07/15 14:58:38;;;;;;;23.23;8.47;;;;;;;31.06;50.59;98565.80;2221047;80;20980;-63
2021/07/15 15:01:39;;;;;;;22.20;9.07;;;;;;;31.03;51.08;98556.80;2220789;80;21067;-63
2021/07/15 15:04:39;;;;;;;24.07;8.73;;;;;;;31.06;51.39;98553.61;2220681;80;21024;-63
2021/07/15 15:07:40;;;;;;;20.50;8.43;;;;;;;31.13;50.82;98552.97;2220942;80;20933;-63
2021/07/15 15:10:40;;;;;;;22.80;8.70;;;;;;;31.17;50.98;98554.16;2220903;80;20965;-63
2021/07/15 15:13:41;;;;;;;25.70;8.60;;;;;;;31.20;50.76;98560.45;2220911;80;21506;-64
2021/07/15 15:16:41;;;;;;;23.30;8.63;;;;;;;31.33;50.72;98559.41;2220911;80;21007;-63
2021/07/15 15:19:41;;;;;;;21.43;8.63;;;;;;;31.52;49.71;98552.00;2220760;80;21024;-64
2021/07/15 15:22:42;;;;;;;22.30;9.63;;;;;;;31.67;49.70;98556.14;2220992;80;20968;-63
2021/07/15 15:25:44;;;;;;;24.70;9.50;;;;;;;31.88;49.66;98565.00;2221033;80;21007;-63
2021/07/15 15:28:44;;;;;;;21.80;8.80;;;;;;;32.22;49.15;98554.84;2220584;80;21051;-65
2021/07/15 15:31:45;;;;;;;22.80;8.67;;;;;;;32.36;49.23;98554.85;2220985;80;20976;-63
2021/07/15 15:34:45;;;;;;;22.10;8.67;;;;;;;32.43;48.45;98549.29;2221012;80;21268;-63
2021/07/15 15:37:46;;;;;;;23.87;8.95;;;;;;;32.65;48.67;98550.77;2220650;80;20980;-63
2021/07/15 15:40:47;;;;;;;23.80;8.75;;;;;;;32.90;47.99;98553.66;2220758;80;21000;-63
2021/07/15 15:43:48;;;;;;;20.50;8.40;;;;;;;33.05;47.33;98555.27;2210315;80;21661;-64
2021/07/15 15:46:48;;;;;;;26.70;11.65;;;;;;;33.14;46.91;98555.67;2210630;81;21005;-64
2021/07/15 15:49:49;;;;;;;23.20;8.68;;;;;;;33.12;47.30;98556.47;2210614;81;20980;-65
2021/07/15 15:52:49;;;;;;;20.95;8.35;;;;;;;32.90;46.99;98545.50;2210722;81;21036;-64
2021/07/15 15:55:50;;;;;;;23.50;8.95;;;;;;;32.68;46.89;98539.98;2210249;81;21035;-63
2021/07/15 15:58:50;;;;;;;26.20;11.22;;;;;;;32.37;47.00;98535.31;2210135;81;21585;-65
2021/07/15 16:01:51;;;;;;;24.43;9.23;;;;;;;32.16;47.11;98538.19;2210313;81;21494;-63
2021/07/15 16:04:52;;;;;;;22.48;9.80;;;;;;;32.04;47.69;98544.44;2210606;81;21024;-64
2021/07/15 16:07:52;;;;;;;24.67;9.77;;;;;;;31.99;47.58;98551.66;2210737;81;21021;-63
2021/07/15 16:10:53;;;;;;;23.02;9.25;;;;;;;31.85;47.72;98555.16;2210343;81;21193;-64
2021/07/15 16:13:53;;;;;;;25.57;9.78;;;;;;;31.51;47.66;98548.17;2210552;81;20999;-65
2021/07/15 16:16:54;;;;;;;26.73;9.23;;;;;;;31.00;48.71;98551.81;2210579;81;21494;-63